createdAt,value
2022-08-09T00:18:05.659Z,22.80
2022-08-09T00:19:55.251Z,22.40
2022-08-09T00:22:25.483Z,22.50
2022-08-09T00:24:55.715Z,22.50
2022-08-09T00:27:24.493Z,22.40
2022-08-09T00:30:23.648Z,22.40
2022-08-09T00:32:26.882Z,22.40
2022-08-09T00:34:56.511Z,22.40
2022-08-09T00:37:27.174Z,22.40
2022-08-09T00:40:13.597Z,22.50
2022-08-09T00:44:10.158Z,22.30
2022-08-09T00:44:58.957Z,22.20
2022-08-09T00:47:29.185Z,22.30
2022-08-09T00:49:59.924Z,22.30
2022-08-09T00:52:31.097Z,22.20
2022-08-09T00:55:01.113Z,22.20
2022-08-09T00:57:34.411Z,22.20
2022-08-09T01:00:03.032Z,22.20
2022-08-09T01:02:32.245Z,22.20
2022-08-09T01:05:14.009Z,22.10
2022-08-09T01:08:01.594Z,22.10
2022-08-09T01:10:59.057Z,22.10
2022-08-09T01:13:59.510Z,22.10
2022-08-09T01:16:22.213Z,22.10
2022-08-09T01:19:02.584Z,22.00
2022-08-09T01:21:41.142Z,22.00
2022-08-09T01:24:50.265Z,22.00
2022-08-09T01:27:36.732Z,22.00
2022-08-09T01:30:08.291Z,21.80
2022-08-09T01:32:46.003Z,21.80
2022-08-09T01:35:37.398Z,21.80
2022-08-09T01:38:09.953Z,21.80
2022-08-09T01:40:29.200Z,21.80
2022-08-09T01:42:58.724Z,21.70
2022-08-09T01:45:31.496Z,21.60
2022-08-09T01:48:02.011Z,21.50
2022-08-09T01:50:37.057Z,22.20
2022-08-09T01:53:19.966Z,21.40
2022-08-09T01:55:38.752Z,21.40
2022-08-09T01:58:11.125Z,21.30
2022-08-09T02:00:42.817Z,21.30
2022-08-09T02:03:13.643Z,21.30
2022-08-09T02:06:04.218Z,21.30
2022-08-09T02:08:35.141Z,21.20
2022-08-09T02:10:52.449Z,21.30
2022-08-09T02:13:25.905Z,21.20
2022-08-09T02:15:55.106Z,21.20
2022-08-09T02:18:28.271Z,21.20
2022-08-09T02:21:02.829Z,21.20
2022-08-09T02:23:39.862Z,21.20
2022-08-09T02:26:09.134Z,21.10
2022-08-09T02:28:42.854Z,21.10
2022-08-09T02:31:17.461Z,21.20
2022-08-09T02:34:06.406Z,20.80
2022-08-09T02:36:35.499Z,21.00
2022-08-09T02:39:07.259Z,21.00
2022-08-09T02:41:43.498Z,21.00
2022-08-09T02:44:29.443Z,20.90
2022-08-09T02:46:52.024Z,21.00
2022-08-09T02:49:27.219Z,20.90
2022-08-09T02:51:55.018Z,21.00
2022-08-09T02:54:26.259Z,20.90
2022-08-09T02:56:57.054Z,20.90
2022-08-09T02:59:36.506Z,21.00
2022-08-09T03:02:06.319Z,20.90
2022-08-09T03:04:31.827Z,20.90
2022-08-09T03:07:12.394Z,20.80
2022-08-09T03:09:34.870Z,20.80
2022-08-09T03:12:10.947Z,20.80
2022-08-09T03:14:37.666Z,20.80
2022-08-09T03:17:06.680Z,20.80
2022-08-09T03:19:58.335Z,20.70
2022-08-09T03:22:12.165Z,20.70
2022-08-09T03:24:42.846Z,20.70
2022-08-09T03:27:10.725Z,20.70
2022-08-09T03:29:43.187Z,20.70
2022-08-09T03:32:11.432Z,20.70
2022-08-09T03:34:40.285Z,20.60
2022-08-09T03:37:55.521Z,20.60
2022-08-09T03:39:48.654Z,20.70
2022-08-09T03:42:12.607Z,20.60
2022-08-09T03:44:41.330Z,20.60
2022-08-09T03:47:10.774Z,20.60
2022-08-09T03:50:00.149Z,20.60
2022-08-09T03:52:32.098Z,20.50
2022-08-09T03:55:07.492Z,20.50
2022-08-09T03:57:34.220Z,21.00
2022-08-09T04:00:05.981Z,20.50
2022-08-09T04:02:37.491Z,20.50
2022-08-09T04:05:26.715Z,20.50
2022-08-09T04:07:52.982Z,20.50
2022-08-09T04:10:09.099Z,20.40
2022-08-09T04:12:49.884Z,20.20
2022-08-09T04:15:38.804Z,20.40
2022-08-09T04:17:52.252Z,20.40
2022-08-09T04:20:22.491Z,20.40
2022-08-09T04:22:52.073Z,20.30
2022-08-09T04:25:20.762Z,20.30
2022-08-09T04:27:50.761Z,20.30
2022-08-09T04:30:23.457Z,20.20
2022-08-09T04:32:54.042Z,20.20
2022-08-09T04:35:22.929Z,20.20
2022-08-09T04:37:52.726Z,20.20
2022-08-09T04:40:36.200Z,20.30
2022-08-09T04:42:52.582Z,20.20
2022-08-09T04:45:21.250Z,20.30
2022-08-09T04:48:00.930Z,20.20
2022-08-09T04:50:24.170Z,20.20
2022-08-09T04:52:54.419Z,20.20
2022-08-09T04:55:23.155Z,20.20
2022-08-09T04:57:58.747Z,20.20
2022-08-09T05:00:22.880Z,20.20
2022-08-09T05:02:53.138Z,20.20
2022-08-09T05:05:32.519Z,20.30
2022-08-09T05:07:53.362Z,20.40
2022-08-09T05:10:22.057Z,20.50
2022-08-09T05:12:52.387Z,20.60
2022-08-09T05:15:24.609Z,20.80
2022-08-09T05:18:37.484Z,20.90
2022-08-09T05:20:22.259Z,21.20
2022-08-09T05:23:55.492Z,21.40
2022-08-09T05:25:25.021Z,21.50
2022-08-09T05:27:55.420Z,21.70
2022-08-09T05:40:19.850Z,21.90
2022-08-09T05:42:51.688Z,22.80
2022-08-09T05:45:20.340Z,22.90
2022-08-09T05:47:52.334Z,23.10
2022-08-09T05:50:31.070Z,23.20
2022-08-09T05:52:54.871Z,23.40
2022-08-09T05:55:24.411Z,23.50
2022-08-09T05:57:57.161Z,23.70
2022-08-09T06:00:24.293Z,23.90
2022-08-09T06:02:54.086Z,24.10
2022-08-09T06:05:30.636Z,24.20
2022-08-09T06:08:05.521Z,24.50
2022-08-09T06:10:25.505Z,24.60
2022-08-09T06:13:11.756Z,24.80
2022-08-09T06:15:26.418Z,25.00
2022-08-09T06:17:55.214Z,25.20
2022-08-09T06:20:23.977Z,25.40
2022-08-09T06:22:53.101Z,25.50
2022-08-09T06:25:22.131Z,25.60
2022-08-09T06:27:51.430Z,25.60
2022-08-09T06:30:21.003Z,25.70
2022-08-09T06:32:58.837Z,25.80
2022-08-09T06:35:21.577Z,25.80
2022-08-09T06:38:05.375Z,26.00
2022-08-09T06:40:24.206Z,26.10
2022-08-09T06:48:00.909Z,26.20
2022-08-09T06:50:23.210Z,26.70
2022-08-09T06:52:53.517Z,26.80
2022-08-09T06:55:25.319Z,27.00
2022-08-09T06:58:01.371Z,27.20
2022-08-09T09:44:48.470Z,27.40
2022-08-09T09:47:17.397Z,32.30
2022-08-09T09:50:13.836Z,32.10
2022-08-09T09:52:37.374Z,32.20
2022-08-09T09:54:56.969Z,32.20
2022-08-09T09:58:03.220Z,32.30
2022-08-09T09:59:55.783Z,32.40
2022-08-09T10:02:26.751Z,32.50
2022-08-09T10:05:06.617Z,32.60
2022-08-09T10:07:34.824Z,32.60
2022-08-09T10:10:03.301Z,32.60
2022-08-09T10:12:32.662Z,32.50
2022-08-09T10:15:17.538Z,32.30
2022-08-09T10:17:56.068Z,32.20
2022-08-09T10:20:27.217Z,32.20
2022-08-09T10:22:58.475Z,32.30
2022-08-09T10:25:24.058Z,32.30
2022-08-09T10:27:58.052Z,32.40
2022-08-09T10:32:56.123Z,32.70
2022-08-09T10:35:24.273Z,32.80
2022-08-09T10:37:53.783Z,32.90
2022-08-09T10:40:34.683Z,33.10
2022-08-09T10:42:53.014Z,33.20
2022-08-09T10:45:21.921Z,33.30
2022-08-09T10:48:25.834Z,33.20
2022-08-09T10:51:03.741Z,33.10
2022-08-09T10:53:54.828Z,33.10
2022-08-09T10:56:23.026Z,33.00
2022-08-09T10:58:49.483Z,32.90
2022-08-09T11:03:13.531Z,32.90
2022-08-09T11:04:29.699Z,32.90
2022-08-09T11:06:44.706Z,32.80
2022-08-09T11:09:15.793Z,32.80
2022-08-09T11:11:58.847Z,32.90
2022-08-09T11:14:32.244Z,33.00
2022-08-09T11:17:00.470Z,33.10
2022-08-09T11:20:12.207Z,33.10
2022-08-09T11:22:21.644Z,33.00
2022-08-09T11:25:04.557Z,32.60
2022-08-09T11:28:02.923Z,33.00
2022-08-09T11:30:32.308Z,33.10
2022-08-09T11:32:47.521Z,33.20
2022-08-09T11:35:34.922Z,33.30
2022-08-09T11:38:00.437Z,33.40
2022-08-09T11:40:31.898Z,33.60
2022-08-09T11:43:01.545Z,33.00
2022-08-09T11:45:42.597Z,33.40
2022-08-09T11:48:16.020Z,33.50
2022-08-09T11:50:56.140Z,33.50
2022-08-09T11:53:55.146Z,33.50
2022-08-09T11:55:53.505Z,33.60
2022-08-09T11:58:12.521Z,33.60
2022-08-09T12:00:41.862Z,33.60
2022-08-09T12:03:55.473Z,33.50
2022-08-09T12:05:47.184Z,33.50
2022-08-09T12:08:21.819Z,33.40
2022-08-09T12:10:48.474Z,33.20
2022-08-09T12:14:10.542Z,33.20
2022-08-09T12:16:06.456Z,32.90
2022-08-09T12:18:37.469Z,32.70
2022-08-09T12:21:26.217Z,32.60
2022-08-09T12:23:58.678Z,32.50
2022-08-09T12:26:25.601Z,32.50
2022-08-09T12:29:11.736Z,32.50
2022-08-09T12:31:59.206Z,32.60
2022-08-09T12:34:00.791Z,32.60
2022-08-09T12:36:31.187Z,32.60
2022-08-09T12:38:53.244Z,32.50
2022-08-09T12:41:24.905Z,32.60
2022-08-09T12:44:07.068Z,32.70
2022-08-09T12:46:24.564Z,32.70
2022-08-09T12:48:53.970Z,32.70
2022-08-09T12:51:52.425Z,32.70
2022-08-09T12:54:02.118Z,32.60
2022-08-09T12:56:43.185Z,32.50
2022-08-09T12:59:08.780Z,32.40
2022-08-09T13:01:42.879Z,32.50
2022-08-09T13:04:37.174Z,32.30
2022-08-09T13:06:46.315Z,32.40
2022-08-09T13:09:19.207Z,33.00
2022-08-09T13:11:49.793Z,32.40
2022-08-09T13:14:41.855Z,32.50
2022-08-09T13:16:53.942Z,32.70
2022-08-09T13:19:33.084Z,32.80
2022-08-09T13:22:37.626Z,32.70
2022-08-09T13:24:54.354Z,32.60
2022-08-09T13:27:54.514Z,32.60
2022-08-09T13:30:51.049Z,32.60
2022-08-09T14:07:30.350Z,32.50
2022-08-09T14:12:25.705Z,34.40
2022-08-09T14:14:56.538Z,34.60
2022-08-09T14:17:24.128Z,34.60
2022-08-09T14:19:55.342Z,34.60
2022-08-09T14:22:24.685Z,35.00
2022-08-09T14:25:10.046Z,34.60
2022-08-09T14:27:58.511Z,34.40
2022-08-09T14:30:37.337Z,34.00
2022-08-09T14:32:37.795Z,33.70
2022-08-09T14:35:06.790Z,33.60
2022-08-09T14:37:41.288Z,33.60
2022-08-09T14:40:09.317Z,34.00
2022-08-09T14:42:38.375Z,33.70
2022-08-09T14:46:39.098Z,33.90
2022-08-09T14:47:41.401Z,34.00
2022-08-09T14:50:11.761Z,34.20
2022-08-09T14:52:50.054Z,34.20
2022-08-09T14:55:20.306Z,34.20
2022-08-09T14:57:46.366Z,34.10
2022-08-09T15:00:14.896Z,33.90
2022-08-09T15:02:42.948Z,35.80
2022-08-09T15:05:17.016Z,33.80
2022-08-09T15:07:54.721Z,33.80
2022-08-09T15:10:16.286Z,33.90
2022-08-09T15:12:45.337Z,34.00
2022-08-09T15:15:14.410Z,34.10
2022-08-09T15:17:47.262Z,34.10
2022-08-09T15:20:15.273Z,34.30
2022-08-09T15:22:46.656Z,34.20
2022-08-09T15:25:11.858Z,34.00
2022-08-09T15:27:47.964Z,33.80
2022-08-09T15:30:58.205Z,33.20
2022-08-09T15:32:41.598Z,33.60
2022-08-09T15:37:57.441Z,33.60
2022-08-09T15:40:11.833Z,33.50
2022-08-09T15:42:40.178Z,33.60
2022-08-09T15:45:10.527Z,33.60
2022-08-09T15:47:51.459Z,33.80
2022-08-09T18:43:23.756Z,33.90
2022-08-09T18:53:20.146Z,30.90
2022-08-09T18:55:57.097Z,30.50
2022-08-09T18:58:22.160Z,30.40
2022-08-09T19:00:51.554Z,30.40
2022-08-09T19:03:20.139Z,30.20
2022-08-09T19:06:03.390Z,30.10
2022-08-09T19:08:21.803Z,30.00
2022-08-09T19:10:52.040Z,29.90
2022-08-09T19:13:37.989Z,29.80
2022-08-09T19:15:58.944Z,29.80
2022-08-09T19:18:32.890Z,29.70
2022-08-09T19:24:37.241Z,29.60
2022-08-09T19:26:01.802Z,29.50
2022-08-09T19:28:28.958Z,29.40
2022-08-09T19:30:57.540Z,29.40
2022-08-09T19:33:26.201Z,29.30
2022-08-09T20:30:53.891Z,29.30
2022-08-09T22:08:16.589Z,28.30
2022-08-09T22:11:00.923Z,26.50
2022-08-09T22:13:18.508Z,26.40
2022-08-09T22:15:47.230Z,26.30
2022-08-09T22:18:15.801Z,26.30
2022-08-09T22:20:46.177Z,26.30
2022-08-09T22:23:14.792Z,26.20
2022-08-09T22:26:05.617Z,26.20
2022-08-09T22:28:14.661Z,26.10
2022-08-09T22:36:02.366Z,26.10
2022-08-09T22:38:15.272Z,26.00
2022-08-09T22:40:48.691Z,26.00
2022-08-09T22:43:16.816Z,25.90
2022-08-09T22:48:10.456Z,25.90
2022-08-09T22:48:35.497Z,25.80
2022-08-09T22:50:53.135Z,25.80
2022-08-09T22:53:16.997Z,25.70
2022-08-09T22:56:31.450Z,25.70
2022-08-09T22:58:20.411Z,25.60
2022-08-09T23:00:46.098Z,25.60
2022-08-09T23:03:16.445Z,25.60
2022-08-09T23:05:46.746Z,25.60
2022-08-09T23:08:34.377Z,25.50
2022-08-09T23:11:03.352Z,25.50
2022-08-09T23:13:31.934Z,25.40
2022-08-09T23:16:02.211Z,25.40
2022-08-09T23:18:30.933Z,25.40
2022-08-09T23:20:59.520Z,25.40
2022-08-09T23:23:28.200Z,25.30
2022-08-09T23:25:57.104Z,25.30
2022-08-09T23:28:25.811Z,25.30
2022-08-09T23:30:54.478Z,25.30
2022-08-09T23:33:24.212Z,25.30
2022-08-09T23:36:05.129Z,25.20
2022-08-09T23:38:24.194Z,25.10
2022-08-09T23:40:54.080Z,25.20
2022-08-09T23:43:22.900Z,25.10
2022-08-09T23:45:54.400Z,25.10
2022-08-09T23:48:22.973Z,25.00
2022-08-09T23:50:51.564Z,25.00
2022-08-09T23:53:20.136Z,25.00
2022-08-09T23:55:54.551Z,24.90
2022-08-09T23:58:26.149Z,24.90
